Terminal Aerodrome Forecast
Issued by NWS Springfield, MO

Home | Current Version | Previous Version | Text Only | Print | Product List | Glossary On
Versions: 1 2 3 4 5 6 7 8 9 10 11 12 13 14 15 16 17 18 19 20 21 22 23 24 25 26 27 28
000
FTUS43 KSGF 171400 AAA
TAFSGF
TAF AMD
KSGF 171407Z 1714/1812 17010KT 2SM TSRA BR OVC002CB
      TEMPO 1714/1716 1SM TSRA SCT002 BKN020CB
     FM171600 18010KT 5SM BR VCTS SCT012 BKN040CB
     FM171800 22008KT P6SM -SHRA SCT040 BKN060
     FM172300 15005KT P6SM VCSH BKN100
     FM180200 VRB04KT 5SM BR VCSH SCT010 OVC100
     FM180500 VRB03KT 1SM BR OVC002=

USA.gov is the U.S. government's official web portal to all federal, state and local government web resources and services.